createdAt,value
2019-02-24T00:00:41.652Z,99657.87
2019-02-24T00:03:11.065Z,99658.22
2019-02-24T00:05:39.460Z,99654.98
2019-02-24T00:08:07.863Z,99648.91
2019-02-24T00:10:36.254Z,99649.17
2019-02-24T00:13:04.662Z,99648.06
2019-02-24T00:15:33.050Z,99652.70
2019-02-24T00:18:02.980Z,99653.22
2019-02-24T00:20:31.436Z,99643.61
2019-02-24T00:22:59.834Z,99639.73
2019-02-24T00:25:28.306Z,99651.16
2019-02-24T00:27:56.701Z,99650.53
2019-02-24T00:30:25.116Z,99647.06
2019-02-24T00:32:53.525Z,99647.41
2019-02-24T00:35:21.914Z,99651.37
2019-02-24T00:37:50.305Z,99659.52
2019-02-24T00:40:18.697Z,99653.17
2019-02-24T00:42:47.088Z,99652.77
2019-02-24T00:45:15.480Z,99660.23
2019-02-24T00:47:43.874Z,99656.50
2019-02-24T00:50:12.306Z,99660.80
2019-02-24T00:52:40.699Z,99656.50
2019-02-24T00:55:09.097Z,99655.57
2019-02-24T00:57:37.492Z,99653.67
2019-02-24T01:00:09.130Z,99656.06
2019-02-24T01:02:37.633Z,99648.34
2019-02-24T01:05:07.621Z,99652.14
2019-02-24T01:07:36.044Z,99657.45
2019-02-24T01:10:06.827Z,99652.64
2019-02-24T01:12:35.215Z,99652.30
2019-02-24T01:15:03.985Z,99649.05
2019-02-24T01:17:32.379Z,99648.12
2019-02-24T01:20:00.813Z,99647.71
2019-02-24T01:22:29.206Z,99646.10
2019-02-24T01:24:57.604Z,99640.17
2019-02-24T01:27:26.104Z,99644.38
2019-02-24T01:29:54.585Z,99640.09
2019-02-24T01:32:23.059Z,99634.95
2019-02-24T01:34:51.555Z,99632.96
2019-02-24T01:37:19.947Z,99632.14
2019-02-24T01:39:48.350Z,99628.81
2019-02-24T01:42:16.744Z,99631.28
2019-02-24T01:44:45.135Z,99627.41
2019-02-24T01:47:13.524Z,99627.33
2019-02-24T01:49:41.917Z,99622.97
2019-02-24T01:52:10.315Z,99620.36
2019-02-24T01:54:38.707Z,99613.16
2019-02-24T01:57:07.107Z,99617.60
2019-02-24T01:59:35.653Z,99614.61
2019-02-24T02:02:04.733Z,99610.33
2019-02-24T02:04:33.134Z,99603.98
2019-02-24T02:07:01.600Z,99607.64
2019-02-24T02:09:29.998Z,99610.52
2019-02-24T02:11:58.459Z,99607.19
2019-02-24T02:14:26.860Z,99613.53
2019-02-24T02:16:55.264Z,99615.25
2019-02-24T02:19:23.656Z,99620.25
2019-02-24T02:21:52.080Z,99621.00
2019-02-24T02:24:20.553Z,99618.47
2019-02-24T02:26:48.947Z,99614.25
2019-02-24T02:29:17.431Z,99611.56
2019-02-24T02:31:46.150Z,99614.88
2019-02-24T02:34:14.596Z,99616.97
2019-02-24T02:36:43.087Z,99595.08
2019-02-24T02:39:11.548Z,99611.53
2019-02-24T02:41:40.028Z,99608.06
2019-02-24T02:44:08.516Z,99609.17
2019-02-24T02:46:36.908Z,99607.20
2019-02-24T02:49:05.313Z,99606.72
2019-02-24T02:51:33.721Z,99600.38
2019-02-24T02:54:02.201Z,99578.63
2019-02-24T02:56:30.617Z,99596.50
2019-02-24T02:58:59.029Z,99598.59
2019-02-24T03:01:27.419Z,99591.42
2019-02-24T03:03:55.826Z,99584.30
2019-02-24T03:06:28.765Z,99585.57
2019-02-24T03:08:57.219Z,99585.09
2019-02-24T03:11:25.612Z,99583.03
2019-02-24T03:13:54.013Z,99582.10
2019-02-24T03:16:26.735Z,99570.98
2019-02-24T03:18:55.145Z,99575.91
2019-02-24T03:21:23.544Z,99572.11
2019-02-24T03:23:51.943Z,99570.39
2019-02-24T03:26:20.501Z,99569.98
2019-02-24T03:28:48.880Z,99571.10
2019-02-24T03:31:17.332Z,99574.75
2019-02-24T03:33:45.752Z,99574.53
2019-02-24T03:36:14.235Z,99579.52
2019-02-24T03:38:42.629Z,99585.00
2019-02-24T03:41:11.075Z,99591.67
2019-02-24T03:43:39.553Z,99589.14
2019-02-24T03:46:07.947Z,99586.53
2019-02-24T03:48:36.339Z,99589.92
2019-02-24T03:51:04.731Z,99588.91
2019-02-24T03:53:33.159Z,99599.13
2019-02-24T03:56:01.554Z,99596.92
2019-02-24T03:58:29.945Z,99595.66
2019-02-24T04:00:58.351Z,99597.55
2019-02-24T04:03:26.814Z,99601.98
2019-02-24T04:05:55.228Z,99605.78
2019-02-24T04:08:23.621Z,99602.39
2019-02-24T04:10:52.008Z,99607.88
2019-02-24T04:13:20.397Z,99605.33
2019-02-24T04:15:48.791Z,99606.61
2019-02-24T04:18:17.184Z,99604.92
2019-02-24T04:20:45.605Z,99602.01
2019-02-24T04:23:13.992Z,99608.83
2019-02-24T04:25:42.590Z,99603.27
2019-02-24T04:28:11.101Z,99611.69
2019-02-24T04:30:39.503Z,99607.81
2019-02-24T04:33:07.893Z,99605.91
2019-02-24T04:35:36.304Z,99617.56
2019-02-24T04:38:04.704Z,99615.32
2019-02-24T04:40:33.114Z,99611.84
2019-02-24T04:43:01.524Z,99612.78
2019-02-24T04:45:29.916Z,99620.72
2019-02-24T04:47:58.364Z,99623.25
2019-02-24T04:50:26.787Z,99624.04
2019-02-24T04:52:55.213Z,99625.80
2019-02-24T04:55:23.599Z,99621.22
2019-02-24T04:57:51.996Z,99628.89
2019-02-24T05:00:20.389Z,99620.89
2019-02-24T05:02:48.802Z,99625.30
2019-02-24T05:05:17.191Z,99621.98
2019-02-24T05:07:45.683Z,99624.19
2019-02-24T05:10:14.240Z,99630.07
2019-02-24T05:12:42.635Z,99621.91
2019-02-24T05:15:11.043Z,99621.05
2019-02-24T05:17:39.482Z,99620.64
2019-02-24T05:20:08.778Z,99615.65
2019-02-24T05:22:37.165Z,99613.60
2019-02-24T05:25:06.016Z,99617.70
2019-02-24T05:27:34.440Z,99620.32
2019-02-24T05:30:02.849Z,99620.40
2019-02-24T05:32:31.248Z,99613.91
2019-02-24T05:34:59.673Z,99627.15
2019-02-24T05:37:28.067Z,99627.85
2019-02-24T05:39:56.458Z,99641.30
2019-02-24T05:42:24.862Z,99643.66
2019-02-24T05:44:53.241Z,99644.31
2019-02-24T05:47:21.751Z,99639.25
2019-02-24T05:49:50.299Z,99631.81
2019-02-24T05:52:18.703Z,99631.56
2019-02-24T05:54:47.131Z,99628.34
2019-02-24T05:57:15.521Z,99630.55
2019-02-24T05:59:43.942Z,99636.15
2019-02-24T06:02:12.345Z,99640.35
2019-02-24T06:04:40.744Z,99641.95
2019-02-24T06:07:09.161Z,99647.02
2019-02-24T06:09:37.617Z,99655.39
2019-02-24T06:12:06.024Z,99663.27
2019-02-24T06:14:34.477Z,99669.05
2019-02-24T06:17:02.968Z,99672.03
2019-02-24T06:19:31.477Z,99670.27
2019-02-24T06:21:59.865Z,99672.20
2019-02-24T06:24:28.344Z,99670.86
2019-02-24T06:26:56.731Z,99671.11
2019-02-24T06:29:25.263Z,99675.31
2019-02-24T06:31:53.653Z,99667.48
2019-02-24T06:34:22.107Z,99649.67
2019-02-24T06:36:50.509Z,99670.59
2019-02-24T06:39:19.106Z,99672.17
2019-02-24T06:41:47.494Z,99668.22
2019-02-24T06:44:15.910Z,99669.19
2019-02-24T06:46:44.381Z,99669.80
2019-02-24T06:49:12.767Z,99658.97
2019-02-24T06:51:41.253Z,99662.03
2019-02-24T06:54:09.694Z,99664.41
2019-02-24T06:56:38.112Z,99668.70
2019-02-24T06:59:06.548Z,99667.59
2019-02-24T07:01:35.008Z,99660.55
2019-02-24T07:04:03.389Z,99651.84
2019-02-24T07:06:31.781Z,99643.43
2019-02-24T07:09:00.213Z,99640.84
2019-02-24T07:11:28.604Z,99637.16
2019-02-24T07:13:57.018Z,99645.73
2019-02-24T07:16:25.437Z,99641.76
2019-02-24T07:18:53.826Z,99632.55
2019-02-24T07:21:22.309Z,99624.66
2019-02-24T07:23:50.697Z,99621.38
2019-02-24T07:26:19.120Z,99613.85
2019-02-24T07:28:47.522Z,99604.65
2019-02-24T07:31:15.908Z,99493.38
2019-02-24T07:33:44.318Z,99583.89
2019-02-24T07:36:12.744Z,99589.33
2019-02-24T07:38:41.146Z,99592.95
2019-02-24T07:41:09.541Z,99596.98
2019-02-24T07:43:37.972Z,99607.35
2019-02-24T07:46:06.462Z,99600.75
2019-02-24T07:48:34.885Z,99621.19
2019-02-24T07:51:03.274Z,99552.06
2019-02-24T07:53:31.666Z,99643.57
2019-02-24T07:56:01.100Z,99647.56
2019-02-24T07:58:29.489Z,99642.34
2019-02-24T08:00:57.877Z,99543.20
2019-02-24T08:03:26.269Z,99630.29
2019-02-24T08:05:54.661Z,99621.77
2019-02-24T08:08:23.049Z,99624.67
2019-02-24T08:10:51.450Z,99619.17
2019-02-24T08:13:19.846Z,99609.38
2019-02-24T08:15:48.311Z,99616.52
2019-02-24T08:18:16.728Z,99624.98
2019-02-24T08:20:45.127Z,99645.55
2019-02-24T08:23:13.514Z,99645.52
2019-02-24T08:25:41.898Z,99643.29
2019-02-24T08:28:10.283Z,99634.95
2019-02-24T08:30:41.582Z,99631.00
2019-02-24T08:33:08.799Z,99641.64
2019-02-24T08:35:37.193Z,99650.74
2019-02-24T08:38:05.583Z,99651.28
2019-02-24T08:40:33.996Z,99652.61
2019-02-24T08:43:02.381Z,99626.02
2019-02-24T08:45:30.778Z,99617.91
2019-02-24T08:47:59.196Z,99605.89
2019-02-24T08:50:27.610Z,99582.45
2019-02-24T08:52:55.998Z,99613.36
2019-02-24T08:55:24.375Z,99640.67
2019-02-24T08:57:52.792Z,99631.05
2019-02-24T09:00:21.170Z,99653.72
2019-02-24T09:02:49.675Z,99637.05
2019-02-24T09:05:18.094Z,99636.14
2019-02-24T09:07:46.496Z,99638.56
2019-02-24T09:10:14.883Z,99618.53
2019-02-24T09:12:43.261Z,99613.19
2019-02-24T09:15:12.888Z,99611.79
2019-02-24T09:17:41.276Z,99604.48
2019-02-24T09:20:11.321Z,99608.86
2019-02-24T09:22:39.857Z,99600.88
2019-02-24T09:25:08.699Z,99607.31
2019-02-24T09:27:42.915Z,99612.58
2019-02-24T09:30:14.084Z,99612.69
2019-02-24T09:32:42.469Z,99605.23
2019-02-24T09:35:10.997Z,99602.89
2019-02-24T09:37:39.413Z,99596.63
2019-02-24T09:40:12.452Z,99590.94
2019-02-24T09:42:40.836Z,99576.28
2019-02-24T09:45:11.164Z,99582.87
2019-02-24T09:47:46.352Z,99586.31
2019-02-24T09:50:10.415Z,99584.14
2019-02-24T09:52:38.819Z,99580.82
2019-02-24T09:55:08.736Z,99594.25
2019-02-24T09:57:37.285Z,99593.88
2019-02-24T10:00:14.694Z,99598.63
2019-02-24T10:02:43.142Z,99594.84
2019-02-24T10:05:11.528Z,99603.59
2019-02-24T10:07:39.933Z,99609.80
2019-02-24T10:10:12.371Z,99618.56
2019-02-24T10:12:40.851Z,99619.37
2019-02-24T10:15:14.038Z,99628.07
2019-02-24T10:17:42.545Z,99619.71
2019-02-24T10:20:12.269Z,99612.00
2019-02-24T10:22:41.507Z,99609.64
2019-02-24T10:25:10.566Z,99614.19
2019-02-24T10:27:38.967Z,99617.68
2019-02-24T10:30:14.570Z,99621.14
2019-02-24T10:32:43.030Z,99625.44
2019-02-24T10:35:11.434Z,99632.59
2019-02-24T10:37:39.829Z,99642.72
2019-02-24T10:40:12.515Z,99655.81
2019-02-24T10:42:41.000Z,99643.67
2019-02-24T10:45:12.232Z,99638.17
2019-02-24T10:47:41.674Z,99640.08
2019-02-24T10:50:13.658Z,99642.49
2019-02-24T10:52:42.008Z,99636.28
2019-02-24T10:55:10.742Z,99639.41
2019-02-24T10:57:39.193Z,99645.33
2019-02-24T11:00:13.309Z,99649.16
2019-02-24T11:02:41.688Z,99646.36
2019-02-24T11:05:10.145Z,99639.16
2019-02-24T11:07:38.629Z,99648.72
2019-02-24T11:10:08.953Z,99657.84
2019-02-24T11:12:37.365Z,99660.93
2019-02-24T11:15:08.096Z,99654.67
2019-02-24T11:17:36.497Z,99643.87
2019-02-24T11:20:08.004Z,99650.97
2019-02-24T11:22:36.497Z,99631.49
2019-02-24T11:25:08.109Z,99636.70
2019-02-24T11:27:36.486Z,99644.28
2019-02-24T11:30:07.514Z,99649.78
2019-02-24T11:32:36.927Z,99645.36
2019-02-24T11:35:07.923Z,99628.47
2019-02-24T11:37:36.334Z,99621.77
2019-02-24T11:40:12.870Z,99623.30
2019-02-24T11:42:41.305Z,99607.14
2019-02-24T11:45:10.228Z,99595.01
2019-02-24T11:47:38.688Z,99602.85
2019-02-24T11:50:09.393Z,99610.23
2019-02-24T11:52:37.792Z,99606.69
2019-02-24T11:55:08.380Z,99596.96
2019-02-24T11:57:36.789Z,99591.92
2019-02-24T12:00:08.280Z,99575.89
2019-02-24T12:02:36.679Z,99578.61
2019-02-24T12:05:06.998Z,99577.91
2019-02-24T12:07:35.423Z,99582.30
2019-02-24T12:10:05.711Z,99582.37
2019-02-24T12:12:34.098Z,99574.69
2019-02-24T12:15:02.511Z,99573.91
2019-02-24T12:17:30.930Z,99565.09
2019-02-24T12:19:59.349Z,99572.48
2019-02-24T12:22:27.719Z,99569.39
2019-02-24T12:24:56.103Z,99565.62
2019-02-24T12:27:24.516Z,99566.16
2019-02-24T12:29:52.909Z,99569.57
2019-02-24T12:32:21.307Z,99564.41
2019-02-24T12:34:49.737Z,99568.33
2019-02-24T12:37:18.128Z,99561.45
2019-02-24T12:39:46.517Z,99561.92
2019-02-24T12:42:14.907Z,99564.88
2019-02-24T12:44:43.290Z,99570.43
2019-02-24T12:47:11.715Z,99569.00
2019-02-24T12:49:40.143Z,99575.05
2019-02-24T12:52:08.567Z,99565.80
2019-02-24T12:54:36.984Z,99566.30
2019-02-24T12:57:05.367Z,99566.02
2019-02-24T12:59:33.754Z,99552.91
2019-02-24T13:02:05.708Z,99545.78
2019-02-24T13:04:32.262Z,99547.13
2019-02-24T13:07:00.664Z,99545.92
2019-02-24T13:09:29.054Z,99547.20
2019-02-24T13:11:57.437Z,99550.91
2019-02-24T13:14:25.889Z,99547.52
2019-02-24T13:16:54.288Z,99542.08
2019-02-24T13:19:23.653Z,99542.41
2019-02-24T13:21:52.144Z,99545.42
2019-02-24T13:24:20.591Z,99537.73
2019-02-24T13:26:49.008Z,99536.02
2019-02-24T13:29:17.396Z,99536.45
2019-02-24T13:31:45.811Z,99540.56
2019-02-24T13:34:14.188Z,99545.97
2019-02-24T13:36:42.645Z,99548.08
2019-02-24T13:39:11.032Z,99550.53
2019-02-24T13:41:39.426Z,99546.19
2019-02-24T13:44:07.819Z,99543.56
2019-02-24T13:46:36.227Z,99539.68
2019-02-24T13:49:04.640Z,99538.89
2019-02-24T13:51:33.022Z,99537.65
2019-02-24T13:54:01.405Z,99536.90
2019-02-24T13:56:29.808Z,99533.09
2019-02-24T13:58:58.216Z,99531.88
2019-02-24T14:01:26.611Z,99526.75
2019-02-24T14:03:54.991Z,99532.34
2019-02-24T14:06:23.401Z,99537.95
2019-02-24T14:08:51.787Z,99533.30
2019-02-24T14:11:20.183Z,99537.92
2019-02-24T14:13:48.635Z,99532.73
2019-02-24T14:16:16.954Z,99531.38
2019-02-24T14:18:45.338Z,99536.94
2019-02-24T14:21:13.726Z,99527.21
2019-02-24T14:23:42.105Z,99529.05
2019-02-24T14:26:10.499Z,99525.28
2019-02-24T14:28:38.954Z,99520.16
2019-02-24T14:31:07.350Z,99517.66
2019-02-24T14:33:35.748Z,99521.07
2019-02-24T14:36:04.159Z,99527.41
2019-02-24T14:38:32.550Z,99533.89
2019-02-24T14:41:00.972Z,99528.37
2019-02-24T14:43:29.381Z,99522.81
2019-02-24T14:45:57.766Z,99523.70
2019-02-24T14:48:26.210Z,99523.70
2019-02-24T14:50:54.557Z,99525.41
2019-02-24T14:53:22.949Z,99528.96
2019-02-24T14:55:51.358Z,99529.05
2019-02-24T14:58:19.750Z,99533.89
2019-02-24T15:00:48.136Z,99540.72
2019-02-24T15:03:16.613Z,99544.57
2019-02-24T15:05:45.959Z,99543.35
2019-02-24T15:08:14.392Z,99544.70
2019-02-24T15:10:42.787Z,99553.31
2019-02-24T15:13:12.114Z,99546.08
2019-02-24T15:15:40.538Z,99546.08
2019-02-24T15:18:08.917Z,99541.44
2019-02-24T15:20:38.284Z,99550.02
2019-02-24T15:23:06.928Z,99543.20
2019-02-24T15:25:35.304Z,99542.84
2019-02-24T15:28:03.695Z,99538.47
2019-02-24T15:30:34.585Z,99536.70
2019-02-24T15:33:03.001Z,99539.66
2019-02-24T15:35:31.385Z,99539.14
2019-02-24T15:38:00.708Z,99536.05
2019-02-24T15:40:33.091Z,99538.55
2019-02-24T15:43:01.474Z,99535.07
2019-02-24T15:45:29.996Z,99532.48
2019-02-24T15:47:58.396Z,99525.61
2019-02-24T15:50:26.774Z,99520.45
2019-02-24T15:52:55.186Z,99517.09
2019-02-24T15:55:23.572Z,99517.12
2019-02-24T15:57:51.955Z,99517.12
2019-02-24T16:00:22.118Z,99513.37
2019-02-24T16:02:50.508Z,99508.73
2019-02-24T16:05:18.945Z,99498.45
2019-02-24T16:07:47.337Z,99500.09
2019-02-24T16:10:17.349Z,99510.25
2019-02-24T16:12:45.731Z,99508.81
2019-02-24T16:15:17.009Z,99516.02
2019-02-24T16:17:45.487Z,99517.66
2019-02-24T16:20:19.787Z,99521.89
2019-02-24T16:22:48.178Z,99526.13
2019-02-24T16:25:16.577Z,99527.77
2019-02-24T16:27:44.994Z,99529.45
2019-02-24T16:30:15.017Z,99533.63
2019-02-24T16:32:43.422Z,99542.06
2019-02-24T16:35:16.801Z,99538.54
2019-02-24T16:37:45.212Z,99536.69
2019-02-24T16:40:20.941Z,99532.21
2019-02-24T16:42:50.330Z,99533.77
2019-02-24T16:45:19.751Z,99535.77
2019-02-24T16:47:48.271Z,99534.30
2019-02-24T16:50:18.413Z,99538.42
2019-02-24T16:52:47.788Z,99563.09
2019-02-24T16:55:17.657Z,99558.75
2019-02-24T16:57:50.223Z,99556.11
2019-02-24T17:00:28.862Z,99550.06
2019-02-24T17:02:57.280Z,99496.77
2019-02-24T17:05:26.600Z,99552.31
2019-02-24T17:08:02.154Z,99561.62
2019-02-24T17:10:30.610Z,99552.08
2019-02-24T17:13:01.759Z,99546.83
2019-02-24T17:15:30.360Z,99543.22
2019-02-24T17:17:59.670Z,99553.25
2019-02-24T17:20:30.103Z,99564.30
2019-02-24T17:22:58.530Z,99566.77
2019-02-24T17:25:26.909Z,99568.38
2019-02-24T17:27:55.287Z,99575.51
2019-02-24T17:30:24.050Z,99573.64
2019-02-24T17:32:52.457Z,99575.25
2019-02-24T17:35:20.836Z,99576.91
2019-02-24T17:37:49.226Z,99572.09
2019-02-24T17:40:21.840Z,99566.84
2019-02-24T17:42:50.222Z,99576.48
2019-02-24T17:45:18.651Z,99572.47
2019-02-24T17:47:47.056Z,99582.60
2019-02-24T17:50:18.687Z,99589.37
2019-02-24T17:52:47.103Z,99588.00
2019-02-24T17:55:16.727Z,99588.38
2019-02-24T17:57:45.184Z,99590.03
2019-02-24T18:00:25.779Z,99590.75
2019-02-24T18:02:54.163Z,99594.87
2019-02-24T18:05:22.552Z,99589.66
2019-02-24T18:07:50.959Z,99596.77
2019-02-24T18:10:19.347Z,99599.70
2019-02-24T18:12:47.756Z,99604.25
2019-02-24T18:15:16.171Z,99604.53
2019-02-24T18:17:44.570Z,99606.98
2019-02-24T18:20:18.938Z,99605.14
2019-02-24T18:22:47.325Z,99607.16
2019-02-24T18:25:15.705Z,99607.44
2019-02-24T18:27:44.086Z,99611.52
2019-02-24T18:30:29.861Z,99606.30
2019-02-24T18:32:58.250Z,99610.45
2019-02-24T18:35:26.667Z,99611.16
2019-02-24T18:37:55.057Z,99608.03
2019-02-24T18:40:23.515Z,99606.65
2019-02-24T18:42:59.651Z,99609.52
2019-02-24T18:45:22.086Z,99609.00
2019-02-24T18:47:50.490Z,99598.25
2019-02-24T18:50:21.813Z,99600.23
2019-02-24T18:52:50.235Z,99601.78
2019-02-24T18:55:18.610Z,99599.13
2019-02-24T18:57:47.020Z,99602.38
2019-02-24T19:05:11.248Z,99616.57
2019-02-24T19:07:39.671Z,99627.58
2019-02-24T19:10:16.999Z,99622.38
2019-02-24T19:12:45.386Z,99619.82
2019-02-24T19:15:15.916Z,99618.91
2019-02-24T19:17:44.332Z,99617.16
2019-02-24T19:20:15.535Z,99612.73
2019-02-24T19:22:44.013Z,99616.05
2019-02-24T19:25:12.720Z,99619.81
2019-02-24T19:27:41.098Z,99625.34
2019-02-24T19:30:20.307Z,99625.34
2019-02-24T19:32:48.857Z,99623.14
2019-02-24T19:35:18.264Z,99623.42
2019-02-24T19:37:46.641Z,99625.48
2019-02-24T19:40:19.053Z,99621.55
2019-02-24T19:42:47.435Z,99626.54
2019-02-24T19:45:18.311Z,99626.43
2019-02-24T19:47:46.700Z,99619.47
2019-02-24T19:50:17.032Z,99621.47
2019-02-24T19:52:45.494Z,99623.00
2019-02-24T19:55:15.224Z,99620.78
2019-02-24T19:57:43.642Z,99617.26
2019-02-24T20:00:22.484Z,99620.66
2019-02-24T20:02:50.871Z,99616.40
2019-02-24T20:05:20.224Z,99614.55
2019-02-24T20:07:48.948Z,99625.10
2019-02-24T20:10:19.989Z,99633.08
2019-02-24T20:12:48.398Z,99624.40
2019-02-24T20:15:17.127Z,99628.00
2019-02-24T20:17:45.534Z,99633.87
2019-02-24T20:20:15.403Z,99632.06
2019-02-24T20:22:43.793Z,99633.28
2019-02-24T20:25:13.745Z,99641.34
2019-02-24T20:27:42.125Z,99640.86
2019-02-24T20:30:16.475Z,99640.63
2019-02-24T20:32:44.862Z,99640.58
2019-02-24T20:35:13.388Z,99630.27
2019-02-24T20:37:41.771Z,99635.30
2019-02-24T20:40:11.392Z,99638.69
2019-02-24T20:42:39.847Z,99645.38
2019-02-24T20:45:11.230Z,99641.11
2019-02-24T20:47:39.622Z,99646.89
2019-02-24T20:50:13.918Z,99647.24
2019-02-24T20:52:42.305Z,99648.04
2019-02-24T20:55:11.353Z,99649.31
2019-02-24T20:57:39.759Z,99654.83
2019-02-24T21:00:22.676Z,99661.61
2019-02-24T21:02:51.063Z,99655.69
2019-02-24T21:05:19.452Z,99652.22
2019-02-24T21:07:47.858Z,99653.02
2019-02-24T21:10:16.367Z,99663.09
2019-02-24T21:12:44.750Z,99663.44
2019-02-24T21:15:15.546Z,99660.77
2019-02-24T21:17:44.000Z,99662.84
2019-02-24T21:20:15.323Z,99668.29
2019-02-24T21:22:43.710Z,99670.36
2019-02-24T21:25:12.239Z,99669.92
2019-02-24T21:27:40.649Z,99672.28
2019-02-24T21:30:15.637Z,99674.29
2019-02-24T21:32:44.059Z,99669.55
2019-02-24T21:35:12.786Z,99670.34
2019-02-24T21:37:41.232Z,99669.78
2019-02-24T21:40:11.783Z,99668.45
2019-02-24T21:42:40.167Z,99669.53
2019-02-24T21:45:14.617Z,99679.17
2019-02-24T21:47:43.018Z,99674.43
2019-02-24T21:50:14.106Z,99685.83
2019-02-24T21:52:42.565Z,99680.73
2019-02-24T21:55:11.787Z,99674.84
2019-02-24T21:57:40.272Z,99677.39
2019-02-24T22:00:14.066Z,99671.34
2019-02-24T22:02:42.494Z,99660.66
2019-02-24T22:05:11.645Z,99655.82
2019-02-24T22:07:40.036Z,99660.75
2019-02-24T22:10:10.889Z,99658.81
2019-02-24T22:12:39.311Z,99653.13
2019-02-24T22:15:10.679Z,99655.95
2019-02-24T22:17:39.077Z,99650.32
2019-02-24T22:20:09.633Z,99650.67
2019-02-24T22:22:38.022Z,99654.91
2019-02-24T22:25:13.654Z,99653.28
2019-02-24T22:27:42.384Z,99659.23
2019-02-24T22:30:18.392Z,99651.59
2019-02-24T22:32:46.840Z,99654.97
2019-02-24T22:35:15.248Z,99654.11
2019-02-24T22:37:43.640Z,99653.22
2019-02-24T22:40:16.909Z,99653.22
2019-02-24T22:42:46.032Z,99651.02
2019-02-24T22:45:19.217Z,99650.61
2019-02-24T22:47:47.705Z,99641.98
2019-02-24T22:50:16.466Z,99644.05
2019-02-24T22:52:45.801Z,99639.66
2019-02-24T22:55:15.556Z,99637.44
2019-02-24T22:57:43.949Z,99636.03
2019-02-24T23:00:31.675Z,99631.91
2019-02-24T23:03:00.271Z,99623.73
2019-02-24T23:05:28.817Z,99621.13
2019-02-24T23:07:57.233Z,99629.61
2019-02-24T23:10:25.720Z,99628.75
2019-02-24T23:12:54.110Z,99621.95
2019-02-24T23:15:22.784Z,99629.58
2019-02-24T23:17:51.203Z,99632.50
2019-02-24T23:20:19.597Z,99632.06
2019-02-24T23:22:47.992Z,99640.07
2019-02-24T23:25:16.445Z,99635.33
2019-02-24T23:27:44.861Z,99632.00
2019-02-24T23:30:13.334Z,99625.03
2019-02-24T23:32:41.728Z,99632.05
2019-02-24T23:35:10.261Z,99632.46
2019-02-24T23:37:38.714Z,99633.67
2019-02-24T23:40:08.967Z,99640.50
2019-02-24T23:42:37.365Z,99640.02
2019-02-24T23:45:11.379Z,99648.92
2019-02-24T23:47:40.064Z,99638.84
2019-02-24T23:50:11.070Z,99640.05
2019-02-24T23:52:39.461Z,99637.78
2019-02-24T23:55:09.194Z,99633.48
2019-02-24T23:57:37.585Z,99627.92
